Rodbyhavn, Denmark
Current Conditions -  °F | °C
As of 5:20 PM on Friday 28 Nov 2014 (Local Time) from EKAV Reporting Station
Broken Clouds Broken Clouds  
Wind Chill: 32°   Ceiling: 2000
Heat Index: 41°   Visibility: 6mi
Dew Point: 32°   Wind: 21mph
Humidity: 70%   Direction: 100°E
Pressure: 30.3"   Gusts: 32mph
Location:  54.65°N, 11.35°E
Report Text: EKAV 281620Z AUTO 10018G28KT 040V140 9999NDV BKN020///05/M00 Q1026
Loading
Personal Weather Stations






























Interactive Weather Map New forecast layout! Learn more

10-Day Weather Forecast

Advertisements
Track Severe Weather on mobile